createdAt,value
2022-12-08T00:00:06.556Z,2.43
2022-12-08T00:03:13.522Z,2.39
2022-12-08T00:06:29.296Z,2.42
2022-12-08T00:09:39.222Z,2.40
2022-12-08T00:12:41.060Z,2.41
2022-12-08T00:15:42.510Z,2.34
2022-12-08T00:18:43.966Z,2.28
2022-12-08T00:21:45.437Z,2.22
2022-12-08T00:24:46.923Z,2.27
2022-12-08T00:27:48.416Z,2.31
2022-12-08T00:30:49.997Z,2.22
2022-12-08T00:33:51.428Z,2.15
2022-12-08T00:36:52.847Z,2.07
2022-12-08T00:39:54.676Z,2.08
2022-12-08T00:42:56.474Z,2.08
2022-12-08T00:45:58.012Z,2.07
2022-12-08T00:48:59.578Z,2.12
2022-12-08T00:52:01.421Z,2.19
2022-12-08T00:55:04.556Z,2.31
2022-12-08T00:58:06.059Z,2.28
2022-12-08T01:01:11.779Z,2.32
2022-12-08T01:04:15.252Z,2.20
2022-12-08T01:07:16.985Z,2.13
2022-12-08T01:10:18.468Z,2.17
2022-12-08T01:13:20.120Z,2.11
2022-12-08T01:16:28.698Z,2.15
2022-12-08T01:19:30.300Z,2.29
2022-12-08T01:22:34.011Z,2.32
2022-12-08T01:25:35.443Z,2.39
2022-12-08T01:28:37.204Z,2.42
2022-12-08T01:31:39.186Z,2.44
2022-12-08T01:34:40.682Z,2.38
2022-12-08T01:37:42.149Z,2.34
2022-12-08T01:40:43.708Z,2.32
2022-12-08T01:44:07.935Z,2.34
2022-12-08T01:47:09.699Z,2.38
2022-12-08T01:50:13.447Z,2.39
2022-12-08T01:53:20.139Z,2.48
2022-12-08T01:56:55.489Z,2.53
2022-12-08T02:00:03.965Z,2.51
2022-12-08T02:03:14.428Z,2.58
2022-12-08T02:06:17.080Z,2.64
2022-12-08T02:09:20.044Z,2.69
2022-12-08T02:12:21.600Z,2.63
2022-12-08T02:15:41.462Z,2.63
2022-12-08T02:19:29.188Z,2.60
2022-12-08T02:22:48.420Z,2.54
2022-12-08T02:26:11.504Z,2.55
2022-12-08T02:29:44.927Z,2.51
2022-12-08T02:33:07.631Z,2.45
2022-12-08T02:36:40.418Z,2.41
2022-12-08T02:39:56.608Z,2.40
2022-12-08T02:43:03.572Z,2.42
2022-12-08T02:46:40.048Z,2.45
2022-12-08T02:49:41.764Z,2.48
2022-12-08T02:52:46.097Z,2.52
2022-12-08T02:56:06.316Z,2.59
2022-12-08T02:59:31.657Z,2.59
2022-12-08T03:02:36.054Z,2.58
2022-12-08T03:06:12.754Z,2.59
2022-12-08T03:09:28.857Z,2.54
2022-12-08T03:12:43.794Z,2.55
2022-12-08T03:15:48.587Z,2.55
2022-12-08T03:18:56.252Z,2.56
2022-12-08T03:22:00.121Z,2.52
2022-12-08T03:25:02.023Z,2.48
2022-12-08T03:28:05.067Z,2.45
2022-12-08T03:31:12.051Z,2.40
2022-12-08T03:34:14.664Z,2.36
2022-12-08T03:37:17.100Z,2.39
2022-12-08T03:40:20.547Z,2.44
2022-12-08T03:43:22.017Z,2.38
2022-12-08T03:49:26.223Z,2.29
2022-12-08T03:52:27.679Z,2.36
2022-12-08T03:55:29.106Z,2.34
2022-12-08T03:58:35.802Z,2.34
2022-12-08T04:01:38.788Z,2.29
2022-12-08T04:04:40.625Z,2.35
2022-12-08T04:07:42.166Z,2.37
2022-12-08T04:10:43.667Z,2.43
2022-12-08T04:13:45.598Z,2.47
2022-12-08T04:16:47.083Z,2.54
2022-12-08T04:19:48.564Z,2.61
2022-12-08T04:22:49.998Z,2.61
2022-12-08T04:25:52.424Z,2.71
2022-12-08T04:28:53.952Z,2.63
2022-12-08T04:31:55.508Z,2.53
2022-12-08T04:34:57.026Z,2.40
2022-12-08T04:37:58.673Z,2.33
2022-12-08T04:41:00.636Z,2.24
2022-12-08T04:44:02.176Z,2.09
2022-12-08T04:47:03.712Z,2.01
2022-12-08T04:50:06.658Z,2.05
2022-12-08T04:53:09.243Z,2.02
2022-12-08T04:56:17.287Z,1.99
2022-12-08T04:59:18.717Z,1.99
2022-12-08T05:02:20.250Z,1.99
2022-12-08T05:05:21.820Z,2.01
2022-12-08T05:08:23.365Z,1.99
2022-12-08T05:11:24.843Z,2.08
2022-12-08T05:14:26.378Z,2.16
2022-12-08T05:17:28.007Z,2.18
2022-12-08T05:20:29.464Z,2.22
2022-12-08T05:23:31.144Z,2.21
2022-12-08T05:26:32.583Z,2.33
2022-12-08T05:29:34.080Z,2.38
2022-12-08T05:32:35.547Z,2.27
2022-12-08T05:35:37.161Z,2.21
2022-12-08T05:38:39.351Z,2.11
2022-12-08T05:41:41.444Z,2.05
2022-12-08T05:44:42.885Z,2.01
2022-12-08T05:47:44.344Z,1.97
2022-12-08T05:50:47.093Z,1.98
2022-12-08T05:53:50.887Z,1.94
2022-12-08T05:56:52.311Z,1.82
2022-12-08T05:59:53.746Z,1.73
2022-12-08T06:02:55.243Z,1.63
2022-12-08T06:05:56.861Z,1.56
2022-12-08T06:08:58.635Z,1.47
2022-12-08T06:12:00.948Z,1.37
2022-12-08T06:15:02.420Z,1.31
2022-12-08T06:18:04.760Z,1.26
2022-12-08T06:21:08.796Z,1.29
2022-12-08T06:24:10.209Z,1.22
2022-12-08T06:27:11.629Z,1.20
2022-12-08T06:30:13.492Z,1.15
2022-12-08T06:33:14.941Z,1.11
2022-12-08T06:36:18.848Z,1.09
2022-12-08T06:39:20.268Z,1.05
2022-12-08T06:42:21.735Z,1.06
2022-12-08T06:45:23.291Z,1.04
2022-12-08T06:48:25.648Z,1.00
2022-12-08T06:51:27.352Z,0.95
2022-12-08T06:54:28.967Z,0.90
2022-12-08T06:57:33.923Z,0.86
2022-12-08T07:00:38.247Z,0.83
2022-12-08T07:03:41.033Z,0.82
2022-12-08T07:06:42.622Z,0.87
2022-12-08T07:09:44.182Z,0.93
2022-12-08T07:12:45.776Z,0.94
2022-12-08T07:15:47.246Z,0.97
2022-12-08T07:18:49.096Z,0.97
2022-12-08T07:21:50.581Z,1.02
2022-12-08T07:24:52.014Z,1.01
2022-12-08T07:27:53.520Z,1.06
2022-12-08T07:30:55.016Z,1.09
2022-12-08T07:33:57.426Z,1.18
2022-12-08T07:36:58.925Z,1.20
2022-12-08T07:40:00.451Z,1.18
2022-12-08T07:43:01.933Z,1.23
2022-12-08T07:46:03.494Z,1.23
2022-12-08T07:49:05.257Z,1.25
2022-12-08T07:52:06.782Z,1.27
2022-12-08T07:55:08.905Z,1.29
2022-12-08T07:58:11.421Z,1.28
2022-12-08T08:01:22.849Z,1.30
2022-12-08T08:04:24.507Z,1.28
2022-12-08T08:07:26.271Z,1.30
2022-12-08T08:10:28.062Z,1.30
2022-12-08T08:13:29.536Z,1.31
2022-12-08T08:16:36.559Z,1.35
2022-12-08T08:19:39.769Z,1.41
2022-12-08T08:22:41.197Z,1.47
2022-12-08T08:25:42.682Z,1.50
2022-12-08T08:28:44.200Z,1.55
2022-12-08T08:31:45.627Z,1.56
2022-12-08T08:34:47.096Z,1.60
2022-12-08T08:37:49.421Z,1.59
2022-12-08T08:40:51.228Z,1.64
2022-12-08T08:43:54.347Z,1.70
2022-12-08T08:46:55.901Z,1.71
2022-12-08T08:49:57.403Z,1.72
2022-12-08T08:52:58.814Z,1.72
2022-12-08T08:56:02.695Z,1.75
2022-12-08T08:59:04.594Z,1.79
2022-12-08T09:02:16.376Z,1.81
2022-12-08T09:05:18.278Z,1.84
2022-12-08T09:08:20.155Z,1.89
2022-12-08T09:11:29.970Z,1.94
2022-12-08T09:14:31.820Z,1.97
2022-12-08T09:17:33.299Z,2.00
2022-12-08T09:20:35.200Z,1.98
2022-12-08T09:23:40.055Z,1.98
2022-12-08T09:26:43.323Z,1.99
2022-12-08T09:29:44.867Z,2.04
2022-12-08T09:32:46.459Z,2.07
2022-12-08T09:35:47.926Z,2.07
2022-12-08T09:38:52.960Z,2.09
2022-12-08T09:42:18.781Z,2.10
2022-12-08T09:45:22.948Z,2.08
2022-12-08T09:48:32.719Z,2.06
2022-12-08T09:51:41.566Z,2.15
2022-12-08T09:54:43.403Z,2.09
2022-12-08T09:58:02.776Z,2.12
2022-12-08T10:01:10.602Z,2.00
2022-12-08T10:04:36.073Z,2.06
2022-12-08T10:08:14.287Z,2.05
2022-12-08T10:11:47.123Z,2.01
2022-12-08T10:15:35.828Z,1.95
2022-12-08T10:18:37.963Z,1.91
2022-12-08T10:21:40.534Z,1.90
2022-12-08T10:25:01.401Z,1.84
2022-12-08T10:28:03.583Z,1.84
2022-12-08T10:31:06.313Z,1.90
2022-12-08T10:34:17.739Z,1.97
2022-12-08T10:37:19.458Z,2.06
2022-12-08T10:40:21.856Z,2.20
2022-12-08T10:43:27.983Z,2.28
2022-12-08T10:46:32.813Z,2.29
2022-12-08T10:49:35.138Z,2.33
2022-12-08T10:52:41.378Z,2.40
2022-12-08T10:55:49.590Z,2.53
2022-12-08T10:59:12.328Z,2.60
2022-12-08T11:02:19.735Z,2.59
2022-12-08T11:05:23.434Z,2.61
2022-12-08T11:08:27.877Z,2.64
2022-12-08T11:11:58.918Z,2.56
2022-12-08T11:15:02.303Z,2.59
2022-12-08T11:18:22.501Z,2.54
2022-12-08T11:21:38.365Z,2.55
2022-12-08T11:24:45.272Z,2.65
2022-12-08T11:27:51.530Z,2.62
2022-12-08T11:31:04.376Z,2.63
2022-12-08T11:34:06.657Z,2.64
2022-12-08T11:37:21.831Z,2.58
2022-12-08T11:40:36.295Z,2.54
2022-12-08T11:43:50.497Z,2.52
2022-12-08T11:46:56.799Z,2.43
2022-12-08T11:50:32.036Z,2.49
2022-12-08T11:54:10.833Z,2.56
2022-12-08T11:57:13.950Z,2.55
2022-12-08T12:00:18.555Z,2.60
2022-12-08T12:03:30.706Z,2.63
2022-12-08T12:07:00.862Z,2.70
2022-12-08T12:10:41.683Z,2.75
2022-12-08T12:14:08.679Z,2.89
2022-12-08T12:17:29.404Z,2.72
2022-12-08T12:20:35.700Z,2.50
2022-12-08T12:23:48.721Z,2.31
2022-12-08T12:27:05.095Z,2.32
2022-12-08T12:30:27.820Z,2.17
2022-12-08T12:33:33.630Z,2.23
2022-12-08T12:36:51.902Z,2.13
2022-12-08T12:39:53.281Z,2.06
2022-12-08T12:42:57.138Z,1.90
2022-12-08T12:46:23.564Z,1.86
2022-12-08T12:49:40.317Z,1.90
2022-12-08T12:52:42.682Z,1.92
2022-12-08T12:55:56.839Z,2.05
2022-12-08T12:59:37.494Z,2.32
2022-12-08T13:02:43.468Z,2.54
2022-12-08T13:05:56.240Z,2.44
2022-12-08T13:08:59.475Z,2.68
2022-12-08T13:12:09.516Z,2.86
2022-12-08T13:15:23.554Z,2.87
2022-12-08T13:18:48.317Z,3.05
2022-12-08T13:21:50.162Z,2.97
2022-12-08T13:24:51.682Z,2.80
2022-12-08T13:27:54.374Z,2.59
2022-12-08T13:30:58.321Z,2.50
2022-12-08T13:34:00.125Z,2.46
2022-12-08T13:37:10.586Z,2.56
2022-12-08T13:40:23.926Z,2.65
2022-12-08T13:44:05.272Z,2.73
2022-12-08T13:47:33.476Z,3.13
2022-12-08T13:57:49.510Z,3.39
2022-12-08T14:00:57.804Z,3.40
2022-12-08T14:07:21.431Z,2.96
2022-12-08T14:10:29.405Z,2.79
2022-12-08T14:13:33.008Z,2.55
2022-12-08T14:16:43.658Z,2.44
2022-12-08T14:19:53.787Z,2.38
2022-12-08T14:22:55.894Z,2.32
2022-12-08T14:25:57.460Z,2.25
2022-12-08T14:28:59.331Z,2.19
2022-12-08T14:32:00.790Z,2.12
2022-12-08T14:35:19.003Z,2.02
2022-12-08T14:38:22.584Z,1.90
2022-12-08T14:41:32.541Z,1.78
2022-12-08T14:44:38.619Z,1.67
2022-12-08T14:47:40.479Z,1.64
2022-12-08T14:50:54.101Z,1.60
2022-12-08T14:53:58.173Z,1.53
2022-12-08T14:57:00.901Z,1.56
2022-12-08T15:00:08.475Z,1.61
2022-12-08T15:03:13.235Z,1.49
2022-12-08T15:06:15.117Z,1.32
2022-12-08T15:09:28.221Z,1.20
2022-12-08T15:12:29.901Z,1.14
2022-12-08T15:15:45.362Z,1.15
2022-12-08T15:19:01.348Z,1.22
2022-12-08T15:22:17.420Z,1.19
2022-12-08T15:25:18.999Z,1.21
2022-12-08T15:28:29.271Z,1.07
2022-12-08T15:31:31.379Z,0.91
2022-12-08T15:34:32.871Z,0.76
2022-12-08T15:37:34.324Z,0.58
2022-12-08T15:40:35.796Z,0.44
2022-12-08T15:43:37.325Z,0.44
2022-12-08T15:46:38.780Z,0.37
2022-12-08T15:49:40.266Z,0.33
2022-12-08T15:52:42.191Z,0.32
2022-12-08T15:55:58.071Z,0.34
2022-12-08T15:59:05.723Z,0.30
2022-12-08T16:02:12.293Z,0.28
2022-12-08T16:08:49.700Z,0.16
2022-12-08T16:12:06.618Z,0.13
2022-12-08T16:18:36.364Z,0.07
2022-12-08T16:22:29.754Z,0.01
2022-12-08T16:25:14.722Z,-0.02
2022-12-08T16:28:52.220Z,-0.08
2022-12-08T16:31:41.007Z,-0.12
2022-12-08T16:34:43.476Z,-0.13
2022-12-08T16:37:44.999Z,0.02
2022-12-08T16:40:47.284Z,0.17
2022-12-08T16:43:48.695Z,0.17
2022-12-08T16:46:50.136Z,0.34
2022-12-08T16:49:51.566Z,0.40
2022-12-08T16:52:58.496Z,0.49
2022-12-08T16:56:00.018Z,0.51
2022-12-08T16:59:02.063Z,0.60
2022-12-08T17:02:04.105Z,0.66
2022-12-08T17:05:06.463Z,0.67
2022-12-08T17:08:08.399Z,0.68
2022-12-08T17:11:10.612Z,0.72
2022-12-08T17:14:14.197Z,0.72
2022-12-08T17:17:15.721Z,0.69
2022-12-08T17:20:20.137Z,0.60
2022-12-08T17:23:21.540Z,0.50
2022-12-08T17:26:22.998Z,0.54
2022-12-08T17:29:24.751Z,0.62
2022-12-08T17:32:26.396Z,0.66
2022-12-08T17:35:27.956Z,0.66
2022-12-08T17:38:29.431Z,0.63
2022-12-08T17:41:31.710Z,0.66
2022-12-08T17:44:34.258Z,0.75
2022-12-08T17:47:36.475Z,0.79
2022-12-08T17:50:39.712Z,0.77
2022-12-08T17:53:41.368Z,0.72
2022-12-08T17:56:43.889Z,0.72
2022-12-08T17:59:45.410Z,0.77
2022-12-08T18:02:46.870Z,0.73
2022-12-08T18:05:48.315Z,0.69
2022-12-08T18:08:49.765Z,0.64
2022-12-08T18:11:51.219Z,0.55
2022-12-08T18:14:52.675Z,0.51
2022-12-08T18:17:54.584Z,0.44
2022-12-08T18:20:55.996Z,0.43
2022-12-08T18:23:57.510Z,0.47
2022-12-08T18:26:59.009Z,0.44
2022-12-08T18:30:00.923Z,0.35
2022-12-08T18:33:06.732Z,0.37
2022-12-08T18:36:10.362Z,0.44
2022-12-08T18:39:38.241Z,0.50
2022-12-08T18:42:39.703Z,0.51
2022-12-08T18:45:41.314Z,0.49
2022-12-08T18:48:46.595Z,0.51
2022-12-08T18:51:47.995Z,0.52
2022-12-08T18:55:05.803Z,0.56
2022-12-08T18:58:08.140Z,0.58
2022-12-08T19:01:13.856Z,0.66
2022-12-08T19:04:33.650Z,0.71
2022-12-08T19:07:37.056Z,0.73
2022-12-08T19:10:38.574Z,0.73
2022-12-08T19:13:40.030Z,0.74
2022-12-08T19:16:41.481Z,0.76
2022-12-08T19:19:43.010Z,0.79
2022-12-08T19:22:44.429Z,0.71
2022-12-08T19:25:45.951Z,0.68
2022-12-08T19:28:47.598Z,0.64
2022-12-08T19:31:49.196Z,0.59
2022-12-08T19:34:50.744Z,0.59
2022-12-08T19:37:52.182Z,0.58
2022-12-08T19:40:53.659Z,0.55
2022-12-08T19:43:55.097Z,0.56
2022-12-08T19:46:56.707Z,0.52
2022-12-08T19:49:58.375Z,0.38
2022-12-08T19:53:00.833Z,0.18
2022-12-08T19:56:02.672Z,-0.08
2022-12-08T19:59:04.322Z,-0.28
2022-12-08T20:02:06.436Z,-0.35
2022-12-08T20:05:09.237Z,-0.44
2022-12-08T20:08:10.889Z,-0.49
2022-12-08T20:11:12.392Z,-0.51
2022-12-08T20:14:14.138Z,-0.56
2022-12-08T20:17:15.565Z,-0.55
2022-12-08T20:20:17.014Z,-0.52
2022-12-08T20:23:18.584Z,-0.49
2022-12-08T20:26:21.824Z,-0.36
2022-12-08T20:29:23.328Z,-0.20
2022-12-08T20:32:24.807Z,-0.08
2022-12-08T20:35:26.382Z,0.02
2022-12-08T20:38:29.162Z,0.12
2022-12-08T20:41:34.842Z,0.20
2022-12-08T20:44:39.220Z,0.33
2022-12-08T20:47:40.693Z,0.41
2022-12-08T20:50:42.308Z,0.46
2022-12-08T20:53:44.413Z,0.49
2022-12-08T20:56:48.526Z,0.49
2022-12-08T20:59:50.621Z,0.51
2022-12-08T21:02:56.488Z,0.53
2022-12-08T21:05:58.773Z,0.54
2022-12-08T21:09:19.170Z,0.54
2022-12-08T21:12:20.994Z,0.57
2022-12-08T21:15:22.756Z,0.58
2022-12-08T21:18:24.526Z,0.57
2022-12-08T21:21:26.223Z,0.49
2022-12-08T21:24:33.660Z,0.49
2022-12-08T21:27:37.243Z,0.47
2022-12-08T21:30:40.210Z,0.43
2022-12-08T21:33:42.166Z,0.43
2022-12-08T21:36:44.001Z,0.40
2022-12-08T21:39:45.647Z,0.34
2022-12-08T21:42:47.313Z,0.35
2022-12-08T21:45:48.821Z,0.37
2022-12-08T21:48:50.592Z,0.39
2022-12-08T21:51:52.240Z,0.48
2022-12-08T21:54:53.904Z,0.39
2022-12-08T21:57:55.423Z,0.34
2022-12-08T22:00:57.384Z,0.35
2022-12-08T22:03:59.044Z,0.35
2022-12-08T22:07:00.646Z,0.33
2022-12-08T22:10:02.266Z,0.33
2022-12-08T22:13:03.987Z,0.33
2022-12-08T22:16:08.649Z,0.23
2022-12-08T22:19:10.373Z,0.21
2022-12-08T22:22:12.125Z,0.22
2022-12-08T22:25:13.735Z,0.16
2022-12-08T22:28:15.216Z,0.14
2022-12-08T22:31:20.279Z,0.07
2022-12-08T22:34:21.965Z,0.05
2022-12-08T22:37:23.731Z,0.07
2022-12-08T22:40:25.195Z,0.08
2022-12-08T22:43:28.137Z,0.01
2022-12-08T22:46:29.906Z,0.05
2022-12-08T22:49:31.398Z,0.06
2022-12-08T22:52:32.878Z,0.05
2022-12-08T22:55:34.391Z,0.02
2022-12-08T22:58:36.553Z,0.01
2022-12-08T23:01:37.976Z,0.03
2022-12-08T23:04:39.585Z,0.01
2022-12-08T23:07:41.333Z,0.04
2022-12-08T23:10:45.024Z,0.06
2022-12-08T23:13:47.147Z,0.05
2022-12-08T23:16:48.778Z,0.03
2022-12-08T23:19:50.501Z,0.07
2022-12-08T23:22:52.092Z,0.07
2022-12-08T23:25:53.511Z,0.08
2022-12-08T23:28:56.417Z,0.03
2022-12-08T23:31:57.982Z,-0.06
2022-12-08T23:34:59.545Z,-0.27
2022-12-08T23:38:01.229Z,-0.37
2022-12-08T23:41:05.395Z,-0.39
2022-12-08T23:44:07.155Z,-0.22
2022-12-08T23:47:09.003Z,-0.16
2022-12-08T23:50:11.330Z,-0.15
2022-12-08T23:53:13.086Z,-0.13
2022-12-08T23:56:16.818Z,-0.12
2022-12-08T23:59:18.401Z,-0.14
